Time;durP1;ratioP1;P1;durP2;ratioP2;P2;SDS_P1;SDS_P2;PMS_P1;PMS_P2;Temp;Humidity;BMP_temperature;BMP_pressure;BME280_temperature;BME280_humidity;BME280_pressure;Samples;Min_cycle;Max_cycle;Signal;HPM_P1;HPM_P2
2023/10/12 00:00:41;;;;;;;;;;;;;;;20.09;31.50;101497.89;105740;1297;67688;-89
2023/10/12 00:03:07;;;;;;;;;;;;;;;20.08;31.43;101495.69;105595;1297;67255;-89
2023/10/12 00:05:34;;;;;;;;;;;;;;;20.08;31.57;101490.32;105656;1297;67217;-89
2023/10/12 00:08:10;;;;;;;;;;;;;;;20.07;31.47;101488.56;105764;1291;83353;31
2023/10/12 00:10:42;;;;;;;;;;;;;;;20.07;31.49;101486.15;105649;1297;72342;-89
2023/10/12 00:13:11;;;;;;;;;;;;;;;20.07;31.58;101480.39;105576;1295;67080;-89
2023/10/12 00:15:38;;;;;;;;;;;;;;;20.07;31.57;101474.45;105623;1299;67073;-89
2023/10/12 00:18:08;;;;;;;;;;;;;;;20.06;31.70;101471.67;105776;1296;74660;-89
2023/10/12 00:20:37;;;;;;;;;;;;;;;20.06;31.68;101470.30;105793;1296;82470;-89
2023/10/12 00:23:15;;;;;;;;;;;;;;;20.06;31.65;101468.56;105675;1298;72271;-89
2023/10/12 00:28:29;;;;;;;;;;;;;;;20.06;31.72;101464.41;105520;1298;67873;-89
2023/10/12 00:30:55;;;;;;;;;;;;;;;20.05;31.64;101460.58;105583;1298;73608;-89
2023/10/12 00:33:20;;;;;;;;;;;;;;;20.06;31.65;101465.13;105595;1299;67117;-89
2023/10/12 00:35:52;;;;;;;;;;;;;;;20.05;31.82;101463.48;105605;1299;66764;-89
2023/10/12 00:38:18;;;;;;;;;;;;;;;20.05;31.70;101464.29;105591;1299;66968;-89
2023/10/12 00:40:56;;;;;;;;;;;;;;;20.04;31.71;101460.86;105444;1299;67185;-91
2023/10/12 00:43:21;;;;;;;;;;;;;;;20.04;31.87;101463.11;105554;1299;73439;-89
2023/10/12 00:45:47;;;;;;;;;;;;;;;20.04;31.83;101460.96;105577;1298;67290;-89
2023/10/12 00:48:16;;;;;;;;;;;;;;;20.04;31.89;101457.41;105674;1299;66964;-89
2023/10/12 00:50:44;;;;;;;;;;;;;;;20.04;31.97;101464.73;105486;1300;67008;-89
2023/10/12 00:55:56;;;;;;;;;;;;;;;20.03;31.92;101453.68;105540;1299;73554;-90
2023/10/12 00:58:22;;;;;;;;;;;;;;;20.03;31.83;101453.06;105586;1299;82396;-91
2023/10/12 01:00:51;;;;;;;;;;;;;;;20.03;31.98;101452.10;105453;1299;67321;-90
2023/10/12 01:03:35;;;;;;;;;;;;;;;20.03;32.00;101446.00;105633;1295;66955;-90
2023/10/12 01:08:42;;;;;;;;;;;;;;;20.02;31.97;101442.68;105776;1295;73967;-90
2023/10/12 01:11:18;;;;;;;;;;;;;;;20.02;32.07;101443.48;105836;1291;83547;-90
2023/10/12 01:16:25;;;;;;;;;;;;;;;20.02;31.92;101437.45;105771;1299;66979;-90
2023/10/12 01:18:56;;;;;;;;;;;;;;;20.01;31.97;101435.66;106043;1296;67834;-90
2023/10/12 01:21:22;;;;;;;;;;;;;;;20.01;32.21;101436.23;105930;1300;73512;-90
2023/10/12 01:23:51;;;;;;;;;;;;;;;20.01;31.95;101435.75;105991;1292;67896;-90
2023/10/12 01:26:18;;;;;;;;;;;;;;;20.01;32.16;101436.63;105720;1297;72344;-90
2023/10/12 01:28:49;;;;;;;;;;;;;;;20.00;32.04;101434.81;105724;1290;66602;31
2023/10/12 01:31:18;;;;;;;;;;;;;;;20.01;32.25;101439.22;105749;1295;66863;-90
2023/10/12 01:33:44;;;;;;;;;;;;;;;20.00;32.17;101434.26;105614;1296;74301;-90
2023/10/12 01:36:11;;;;;;;;;;;;;;;20.00;32.09;101434.98;105807;1295;67106;-90
2023/10/12 01:38:37;;;;;;;;;;;;;;;20.00;32.30;101431.55;105766;1291;66368;-90
2023/10/12 01:41:09;;;;;;;;;;;;;;;19.99;32.23;101431.09;105737;1297;67047;-90
2023/10/12 01:46:14;;;;;;;;;;;;;;;19.99;32.33;101428.21;105649;1296;73484;-90
2023/10/12 01:48:42;;;;;;;;;;;;;;;19.98;32.19;101428.31;105810;1291;82457;-90
2023/10/12 01:51:16;;;;;;;;;;;;;;;19.98;32.24;101423.77;105623;1296;71558;-90
2023/10/12 01:53:42;;;;;;;;;;;;;;;19.98;32.27;101423.77;105706;1295;67081;-90
2023/10/12 01:56:10;;;;;;;;;;;;;;;19.98;32.19;101421.60;105782;1295;67410;-88
2023/10/12 01:58:44;;;;;;;;;;;;;;;19.98;32.25;101423.14;105755;1293;74716;31
2023/10/12 02:01:18;;;;;;;;;;;;;;;19.97;32.27;101422.11;105550;1297;82244;-89
2023/10/12 02:03:57;;;;;;;;;;;;;;;19.97;32.21;101420.38;105757;1296;71509;-91
2023/10/12 02:06:28;;;;;;;;;;;;;;;19.96;32.32;101416.88;105700;1295;67134;-91
2023/10/12 02:08:53;;;;;;;;;;;;;;;19.96;32.32;101418.33;105672;1296;67213;-90
2023/10/12 02:13:48;;;;;;;;;;;;;;;19.96;32.44;101420.09;105724;1290;66810;-90
2023/10/12 02:16:15;;;;;;;;;;;;;;;19.96;32.28;101417.54;105683;1297;74169;-90
2023/10/12 02:19:04;;;;;;;;;;;;;;;19.96;32.36;101421.72;105365;1298;67083;-90
2023/10/12 02:21:33;;;;;;;;;;;;;;;19.96;32.35;101417.79;105635;1296;67609;-91
2023/10/12 02:24:11;;;;;;;;;;;;;;;19.95;32.36;101417.48;105820;1292;73758;-90
2023/10/12 02:26:40;;;;;;;;;;;;;;;19.96;32.41;101415.70;105727;1296;81783;-90
2023/10/12 02:29:16;;;;;;;;;;;;;;;19.95;32.41;101414.92;105800;1297;72483;-90
2023/10/12 02:31:58;;;;;;;;;;;;;;;19.95;32.35;101411.71;105765;1295;67017;-91
2023/10/12 02:39:42;;;;;;;;;;;;;;;19.95;32.55;101398.02;105270;1293;552168;-90
2023/10/12 02:44:42;;;;;;;;;;;;;;;19.94;32.46;101390.89;105715;1295;67040;-90
2023/10/12 02:47:29;;;;;;;;;;;;;;;19.94;32.53;101387.52;105722;1297;67162;-90
2023/10/12 02:52:33;;;;;;;;;;;;;;;19.92;32.56;101385.04;105488;1293;82068;-89
2023/10/12 02:55:07;;;;;;;;;;;;;;;19.92;32.41;101382.79;105633;1299;67141;-90
2023/10/12 02:57:32;;;;;;;;;;;;;;;19.92;32.55;101384.36;105663;1298;67035;-90
2023/10/12 03:00:12;;;;;;;;;;;;;;;19.92;32.56;101379.61;105677;1296;66447;-90
2023/10/12 03:02:40;;;;;;;;;;;;;;;19.92;32.45;101381.70;105818;1296;73611;-87
2023/10/12 03:05:07;;;;;;;;;;;;;;;19.91;32.40;101380.52;105699;1296;83150;-88
2023/10/12 03:07:37;;;;;;;;;;;;;;;19.90;32.43;101381.62;105731;1297;67168;-88
2023/10/12 03:10:06;;;;;;;;;;;;;;;19.90;32.47;101377.89;105724;1297;67242;-88
2023/10/12 03:12:35;;;;;;;;;;;;;;;19.89;32.48;101377.35;105759;1296;66811;-86
2023/10/12 03:15:11;;;;;;;;;;;;;;;19.88;32.38;101379.95;105590;1299;75825;-86
2023/10/12 03:17:37;;;;;;;;;;;;;;;19.89;32.40;101382.98;105494;1297;83170;-87
2023/10/12 03:20:17;;;;;;;;;;;;;;;19.90;32.46;101386.27;105563;1299;67739;-86
2023/10/12 03:22:44;;;;;;;;;;;;;;;19.91;32.45;101387.52;105544;1299;66952;-87
2023/10/12 03:27:53;;;;;;;;;;;;;;;19.92;32.65;101387.01;105620;1296;75204;-87
2023/10/12 03:30:24;;;;;;;;;;;;;;;19.91;32.89;101387.55;105687;1297;82140;-86
2023/10/12 03:32:49;;;;;;;;;;;;;;;19.89;33.16;101389.41;105668;1296;72623;-87
2023/10/12 03:35:23;;;;;;;;;;;;;;;19.87;33.34;101389.64;105706;1296;67280;-87
2023/10/12 03:37:52;;;;;;;;;;;;;;;19.85;33.39;101386.30;105786;1296;66951;-86
2023/10/12 03:43:27;;;;;;;;;;;;;;;19.81;33.52;101391.12;105201;1296;82378;-92
2023/10/12 03:53:56;;;;;;;;;;;;;;;19.75;33.35;101393.45;105728;1296;74466;-87
2023/10/12 03:56:23;;;;;;;;;;;;;;;19.73;33.28;101392.77;105671;1295;82175;-87
2023/10/12 03:58:58;;;;;;;;;;;;;;;19.72;33.31;101388.19;105490;1296;72336;-87
2023/10/12 04:01:31;;;;;;;;;;;;;;;19.70;33.29;101389.13;105541;1299;67699;-87
2023/10/12 04:07:04;;;;;;;;;;;;;;;19.67;33.21;101395.35;105442;1299;73372;-87
2023/10/12 04:09:43;;;;;;;;;;;;;;;19.65;33.18;101396.13;105484;1296;82014;-86
2023/10/12 04:14:55;;;;;;;;;;;;;;;19.62;33.12;101401.73;105702;1297;67049;-87
2023/10/12 04:43:52;;;;;;;;;;;;;;;19.44;32.75;101413.08;105807;1297;66366;-91
2023/10/12 04:46:47;;;;;;;;;;;;;;;19.42;32.78;101412.54;105713;1296;66926;-90
2023/10/12 04:49:53;;;;;;;;;;;;;;;19.40;32.78;101417.20;105797;1297;75206;-91
2023/10/12 04:52:14;;;;;;;;;;;;;;;19.38;32.77;101413.11;88332;1299;81575;-92
2023/10/12 04:57:31;;;;;;;;;;;;;;;19.37;32.71;101424.08;105446;1299;66368;-89
2023/10/12 05:03:22;;;;;;;;;;;;;;;19.37;32.70;101422.86;103372;1296;73189;-90
2023/10/12 05:08:54;;;;;;;;;;;;;;;19.40;32.69;101424.44;105719;1294;72048;-89
2023/10/12 05:11:23;;;;;;;;;;;;;;;19.40;32.60;101425.52;105474;1299;66435;-87
2023/10/12 05:13:49;;;;;;;;;;;;;;;19.41;32.56;101424.70;105649;1297;66887;-89
2023/10/12 05:16:15;;;;;;;;;;;;;;;19.41;32.58;101426.70;105541;1300;66498;-88
2023/10/12 05:21:14;;;;;;;;;;;;;;;19.41;32.53;101430.13;105652;1300;71961;-88
2023/10/12 05:23:40;;;;;;;;;;;;;;;19.40;32.63;101430.66;105701;1297;66368;-90
2023/10/12 05:28:31;;;;;;;;;;;;;;;19.40;32.63;101427.80;105684;1295;68575;-88
2023/10/12 05:30:59;;;;;;;;;;;;;;;19.40;32.59;101429.64;105571;1300;67527;-88
2023/10/12 05:39:43;;;;;;;;;;;;;;;19.42;32.67;101431.62;105971;1296;66982;-93
2023/10/12 07:28:49;;;;;;;;;;;;;;;19.84;33.62;101431.02;87388;1300;67323;-90
2023/10/12 07:56:47;;;;;;;;;;;;;;;19.82;33.95;101415.30;83350;1325;71638;-90
2023/10/12 07:59:22;;;;;;;;;;;;;;;19.81;33.91;101415.80;105312;1302;66740;-89
2023/10/12 08:18:12;;;;;;;;;;;;;;;19.87;33.91;101412.18;105611;1302;66201;-89
2023/10/12 08:20:52;;;;;;;;;;;;;;;19.89;33.91;101414.69;105672;1299;73325;-90
2023/10/12 08:23:35;;;;;;;;;;;;;;;19.88;33.86;101413.84;105595;1298;84726;-88
2023/10/12 08:40:20;;;;;;;;;;;;;;;19.90;34.09;101405.63;89918;1291;80552;-90
2023/10/12 08:43:09;;;;;;;;;;;;;;;19.91;33.91;101403.24;87195;1297;71603;-89
2023/10/12 08:52:32;;;;;;;;;;;;;;;19.98;34.09;101389.39;105583;1297;73636;-90
2023/10/12 09:25:49;;;;;;;;;;;;;;;20.17;34.19;101355.11;105339;1290;83284;-89
2023/10/12 09:28:25;;;;;;;;;;;;;;;20.17;34.26;101359.83;84600;1300;71422;-89
2023/10/12 09:30:53;;;;;;;;;;;;;;;20.17;34.20;101351.48;105468;1296;67864;-87
2023/10/12 09:36:20;;;;;;;;;;;;;;;20.17;34.36;101336.44;105079;1304;74242;-86
2023/10/12 09:41:25;;;;;;;;;;;;;;;20.20;34.44;101330.30;105357;1300;71736;-87
2023/10/12 09:43:54;;;;;;;;;;;;;;;20.21;34.61;101328.63;105509;1299;67053;-87
2023/10/12 09:46:22;;;;;;;;;;;;;;;20.22;34.54;101323.73;105505;1299;66425;-87
2023/10/12 09:48:48;;;;;;;;;;;;;;;20.23;34.43;101313.73;105571;1300;74423;-87
2023/10/12 09:57:06;;;;;;;;;;;;;;;20.27;34.69;101305.38;105658;1299;66083;-90
2023/10/12 10:08:29;;;;;;;;;;;;;;;20.33;34.70;101290.14;104963;1297;556404;-92
2023/10/12 10:23:14;;;;;;;;;;;;;;;20.38;34.90;101265.92;97530;1296;552277;-91
2023/10/12 10:26:54;;;;;;;;;;;;;;;20.38;34.90;101258.91;100843;1291;551932;-92
2023/10/12 10:30:13;;;;;;;;;;;;;;;20.39;34.83;101255.98;86907;1299;556301;-91
2023/10/12 10:39:38;;;;;;;;;;;;;;;20.39;34.90;101235.27;90040;1298;71835;-91
2023/10/12 10:48:19;;;;;;;;;;;;;;;20.40;34.98;101228.75;97063;1297;73692;-87
2023/10/12 10:53:52;;;;;;;;;;;;;;;20.42;35.04;101221.77;103719;1292;71594;31
2023/10/12 11:07:11;;;;;;;;;;;;;;;20.45;35.12;101204.59;105560;1296;72292;-91
2023/10/12 11:18:55;;;;;;;;;;;;;;;20.47;35.22;101183.34;94282;1299;81354;-90
2023/10/12 11:27:28;;;;;;;;;;;;;;;20.47;35.48;101165.00;104834;1300;66851;-94
2023/10/12 11:42:33;;;;;;;;;;;;;;;20.49;35.36;101149.73;93373;1300;67805;-89
2023/10/12 11:45:14;;;;;;;;;;;;;;;20.49;35.41;101142.73;105643;1296;67608;-91
2023/10/12 11:47:54;;;;;;;;;;;;;;;20.49;35.49;101141.10;105168;1291;557515;-90
2023/10/12 11:56:49;;;;;;;;;;;;;;;20.52;35.26;101129.88;83410;1303;66091;-91
2023/10/12 11:59:27;;;;;;;;;;;;;;;20.52;35.31;101126.98;104533;1300;73975;-89
2023/10/12 12:04:39;;;;;;;;;;;;;;;20.53;35.75;101127.05;105587;1300;72691;-91
2023/10/12 12:10:07;;;;;;;;;;;;;;;20.55;35.62;101110.86;87737;1300;67240;-88
2023/10/12 12:12:45;;;;;;;;;;;;;;;20.56;35.67;101107.55;105490;1299;75458;-90
2023/10/12 12:15:14;;;;;;;;;;;;;;;20.57;35.55;101103.77;105454;1300;82363;-90
2023/10/12 12:17:40;;;;;;;;;;;;;;;20.57;35.60;101103.73;105428;1300;72497;-91
2023/10/12 12:22:42;;;;;;;;;;;;;;;20.59;35.55;101103.19;105476;1300;67707;-90
2023/10/12 12:25:32;;;;;;;;;;;;;;;20.59;35.68;101100.36;105515;1300;73272;-89
2023/10/12 12:28:04;;;;;;;;;;;;;;;20.60;35.78;101093.02;105555;1302;67539;-91
2023/10/12 12:46:31;;;;;;;;;;;;;;;20.64;35.78;101061.10;105392;1297;73083;-90
2023/10/12 12:52:00;;;;;;;;;;;;;;;20.66;35.78;101052.28;105442;1297;67939;-89
2023/10/12 13:13:44;;;;;;;;;;;;;;;20.71;35.73;101028.95;105735;1292;82907;-90
2023/10/12 13:16:13;;;;;;;;;;;;;;;20.71;35.69;101024.82;105397;1297;67722;-90
2023/10/12 13:21:32;;;;;;;;;;;;;;;20.71;35.62;101027.13;105604;1296;66413;-89
2023/10/12 13:24:06;;;;;;;;;;;;;;;20.72;35.80;101024.25;105496;1298;67809;-89
2023/10/12 14:04:41;;;;;;;;;;;;;;;20.65;35.71;100976.09;98115;1296;68357;31
2023/10/12 14:07:28;;;;;;;;;;;;;;;20.64;35.62;100976.23;86659;1296;67334;-90
2023/10/12 14:09:55;;;;;;;;;;;;;;;20.64;35.55;100977.77;105518;1300;67581;-91
2023/10/12 14:58:15;;;;;;;;;;;;;;;20.61;35.51;100954.98;105554;1297;75268;-89
2023/10/12 15:00:43;;;;;;;;;;;;;;;20.61;35.61;100957.89;105543;1296;82441;-90
2023/10/12 15:03:09;;;;;;;;;;;;;;;20.61;35.62;100954.92;105571;1297;72558;-89
2023/10/12 15:05:42;;;;;;;;;;;;;;;20.60;35.58;100959.36;105625;1298;67069;-91
2023/10/12 15:08:08;;;;;;;;;;;;;;;20.60;35.56;100963.14;105546;1298;67032;-89
2023/10/12 15:13:54;;;;;;;;;;;;;;;20.60;35.58;100962.42;105440;1300;82633;-93
2023/10/12 15:16:21;;;;;;;;;;;;;;;20.60;35.56;100961.30;105383;1299;72620;-89
2023/10/12 15:18:47;;;;;;;;;;;;;;;20.60;35.52;100962.38;105317;1300;66941;-89
2023/10/12 15:21:18;;;;;;;;;;;;;;;20.60;35.47;100964.94;105439;1300;67659;-89
2023/10/12 15:23:47;;;;;;;;;;;;;;;20.59;35.50;100961.76;105451;1300;74607;-89
2023/10/12 15:26:16;;;;;;;;;;;;;;;20.59;35.64;100960.64;105562;1300;67065;-89
2023/10/12 15:28:47;;;;;;;;;;;;;;;20.60;35.49;100961.25;105405;1300;72551;-93
2023/10/12 15:31:16;;;;;;;;;;;;;;;20.59;35.50;100956.70;105403;1300;67248;-88
2023/10/12 15:33:42;;;;;;;;;;;;;;;20.58;35.45;100955.88;105291;1302;67994;-89
2023/10/12 15:36:14;;;;;;;;;;;;;;;20.58;35.48;100959.00;105597;1305;74558;-89
2023/10/12 15:38:45;;;;;;;;;;;;;;;20.57;35.41;100958.48;105577;1300;82173;-89
2023/10/12 15:41:11;;;;;;;;;;;;;;;20.57;35.49;100961.70;105583;1303;72594;-89
2023/10/12 15:43:42;;;;;;;;;;;;;;;20.57;35.45;100964.77;105544;1300;67888;-94
2023/10/12 15:46:08;;;;;;;;;;;;;;;20.57;35.52;100965.43;105343;1301;67061;-90
2023/10/12 15:48:34;;;;;;;;;;;;;;;20.55;35.59;100966.64;105397;1299;67685;-89
2023/10/12 15:51:00;;;;;;;;;;;;;;;20.54;35.49;100965.77;105442;1299;67191;-89
2023/10/12 15:53:26;;;;;;;;;;;;;;;20.52;35.61;100965.38;105511;1299;66951;-89
2023/10/12 15:55:52;;;;;;;;;;;;;;;20.49;35.41;100962.02;105635;1297;66985;-88
2023/10/12 15:58:17;;;;;;;;;;;;;;;20.47;35.54;100961.95;105571;1299;66634;-89
2023/10/12 16:00:43;;;;;;;;;;;;;;;20.46;35.51;100962.04;105581;1301;67660;-89
2023/10/12 16:03:09;;;;;;;;;;;;;;;20.43;35.48;100960.59;105547;1299;72615;-89
2023/10/12 16:05:36;;;;;;;;;;;;;;;20.41;35.46;100958.78;105443;1297;67281;-89
2023/10/12 16:08:02;;;;;;;;;;;;;;;20.39;35.38;100961.71;105583;1297;66817;-89
2023/10/12 16:10:37;;;;;;;;;;;;;;;20.36;35.38;100963.38;105449;1300;67654;-92
2023/10/12 16:13:02;;;;;;;;;;;;;;;20.35;35.41;100965.86;105493;1298;83666;-89
2023/10/12 16:15:28;;;;;;;;;;;;;;;20.36;35.48;100970.42;105587;1297;67552;-89
2023/10/12 16:17:54;;;;;;;;;;;;;;;20.36;35.38;100969.25;105601;1298;67416;-89
2023/10/12 16:20:20;;;;;;;;;;;;;;;20.37;35.47;100970.74;105507;1298;66530;-90
2023/10/12 16:22:47;;;;;;;;;;;;;;;20.38;35.53;100974.95;105581;1294;67336;-89
2023/10/12 16:28:14;;;;;;;;;;;;;;;20.40;35.45;100984.42;105634;1297;71448;-91
2023/10/12 16:33:54;;;;;;;;;;;;;;;20.41;35.41;100983.88;105651;1299;67548;-91
2023/10/12 16:36:20;;;;;;;;;;;;;;;20.42;35.45;100984.14;105565;1296;74499;-91
2023/10/12 16:38:46;;;;;;;;;;;;;;;20.43;35.36;100985.48;105441;1299;67217;-90
2023/10/12 16:41:15;;;;;;;;;;;;;;;20.42;35.35;100983.89;105514;1297;68181;-90
2023/10/12 16:43:47;;;;;;;;;;;;;;;20.43;35.41;100987.89;105473;1300;67074;-89
2023/10/12 16:48:49;;;;;;;;;;;;;;;20.43;35.46;100988.04;105566;1296;72686;-90
2023/10/12 16:51:15;;;;;;;;;;;;;;;20.44;35.50;100990.55;105521;1296;67235;-90
2023/10/12 16:53:42;;;;;;;;;;;;;;;20.43;35.45;100986.41;105427;1298;67048;-89
2023/10/12 16:56:13;;;;;;;;;;;;;;;20.45;35.23;100987.54;105538;1296;67530;-89
2023/10/12 16:58:41;;;;;;;;;;;;;;;20.44;35.51;100984.38;105564;1292;67765;-90
2023/10/12 17:01:07;;;;;;;;;;;;;;;20.44;35.30;100984.77;105537;1299;73519;-90
2023/10/12 17:03:35;;;;;;;;;;;;;;;20.44;35.30;100985.76;105498;1296;67254;-90
2023/10/12 17:06:07;;;;;;;;;;;;;;;20.45;35.39;100987.55;105463;1297;72927;-90
2023/10/12 17:08:34;;;;;;;;;;;;;;;20.44;35.42;100986.93;105494;1296;66376;-90
2023/10/12 17:11:05;;;;;;;;;;;;;;;20.43;35.48;100984.98;105456;1299;67278;-90
2023/10/12 17:13:32;;;;;;;;;;;;;;;20.44;35.45;100985.59;105384;1292;74079;-89
2023/10/12 17:15:59;;;;;;;;;;;;;;;20.42;35.32;100985.12;105447;1300;85808;-90
2023/10/12 17:18:25;;;;;;;;;;;;;;;20.43;35.34;100987.48;105496;1296;72947;-90
2023/10/12 17:20:51;;;;;;;;;;;;;;;20.43;35.33;100988.45;105481;1296;68070;-90
2023/10/12 17:23:20;;;;;;;;;;;;;;;20.43;35.53;100992.95;105374;1300;66493;-89
2023/10/12 17:25:46;;;;;;;;;;;;;;;20.43;35.36;100986.92;105627;1296;75519;-88
2023/10/12 17:28:25;;;;;;;;;;;;;;;20.42;35.37;100986.55;105590;1294;83443;31
2023/10/12 17:30:54;;;;;;;;;;;;;;;20.42;35.48;100987.61;105506;1299;71971;-90
2023/10/12 17:33:20;;;;;;;;;;;;;;;20.42;35.35;100986.91;105571;1297;66482;-90
2023/10/12 17:35:46;;;;;;;;;;;;;;;20.42;35.37;100983.69;105571;1296;67693;-89
2023/10/12 17:38:12;;;;;;;;;;;;;;;20.42;35.31;100983.69;105556;1299;68285;-89
2023/10/12 17:40:40;;;;;;;;;;;;;;;20.42;35.38;100985.88;105463;1299;67092;-89
2023/10/12 17:43:19;;;;;;;;;;;;;;;20.42;35.32;100985.58;105525;1300;67548;-90
2023/10/12 17:45:52;;;;;;;;;;;;;;;20.42;35.48;100985.06;105464;1300;67081;-89
2023/10/12 17:48:19;;;;;;;;;;;;;;;20.41;35.52;100977.55;105535;1293;66383;-90
2023/10/12 17:50:47;;;;;;;;;;;;;;;20.42;35.42;100979.54;104961;1296;881834;-90
2023/10/12 17:53:14;;;;;;;;;;;;;;;20.41;35.53;100978.61;105521;1299;83379;-89
2023/10/12 17:55:39;;;;;;;;;;;;;;;20.41;35.51;100978.71;105535;1293;66848;-90
2023/10/12 18:00:33;;;;;;;;;;;;;;;20.40;35.43;100980.50;105631;1297;67072;-90
2023/10/12 18:03:02;;;;;;;;;;;;;;;20.40;35.58;100980.84;105635;1299;67016;-90
2023/10/12 18:05:31;;;;;;;;;;;;;;;20.40;35.48;100982.38;105671;1296;82105;-90
2023/10/12 18:07:57;;;;;;;;;;;;;;;20.40;35.45;100981.71;105697;1298;72564;-89
2023/10/12 18:10:25;;;;;;;;;;;;;;;20.40;35.63;100985.75;105737;1299;67103;-88
2023/10/12 18:12:53;;;;;;;;;;;;;;;20.38;35.45;100983.13;105550;1300;66652;-89
2023/10/12 18:15:19;;;;;;;;;;;;;;;20.39;35.49;100985.29;105717;1295;74465;-89
2023/10/12 18:17:45;;;;;;;;;;;;;;;20.40;35.52;100981.52;105588;1300;67066;-89
2023/10/12 18:20:17;;;;;;;;;;;;;;;20.40;35.58;100981.81;105637;1299;66309;-89
2023/10/12 18:22:42;;;;;;;;;;;;;;;20.39;35.43;100978.95;105687;1292;67009;-89
2023/10/12 18:25:09;;;;;;;;;;;;;;;20.40;35.39;100977.94;105566;1291;66909;-89
2023/10/12 18:27:34;;;;;;;;;;;;;;;20.39;35.45;100974.55;105536;1300;66402;-90
2023/10/12 18:30:00;;;;;;;;;;;;;;;20.40;35.53;100974.10;105433;1300;67194;-89
2023/10/12 18:32:26;;;;;;;;;;;;;;;20.40;35.59;100970.98;105544;1296;67779;-89
2023/10/12 18:34:53;;;;;;;;;;;;;;;20.39;35.61;100970.67;105678;1299;66997;-89
2023/10/12 18:37:19;;;;;;;;;;;;;;;20.40;35.53;100972.25;105472;1293;74344;-89
2023/10/12 18:39:47;;;;;;;;;;;;;;;20.40;35.56;100974.81;105567;1300;68336;-89
2023/10/12 18:42:13;;;;;;;;;;;;;;;20.40;35.59;100976.90;105669;1299;73474;-91
2023/10/12 18:44:38;;;;;;;;;;;;;;;20.39;35.45;100972.61;105634;1299;67070;-89
2023/10/12 18:47:04;;;;;;;;;;;;;;;20.40;35.66;100968.59;105650;1296;67058;-89
2023/10/12 18:49:30;;;;;;;;;;;;;;;20.40;35.52;100969.60;105673;1296;67109;-89
2023/10/12 18:52:05;;;;;;;;;;;;;;;20.40;35.53;100964.80;105640;1293;66948;31
2023/10/12 18:54:30;;;;;;;;;;;;;;;20.39;35.59;100970.11;105457;1300;72183;-89
2023/10/12 18:56:56;;;;;;;;;;;;;;;20.40;35.51;100970.42;105560;1300;66960;-89
2023/10/12 18:59:23;;;;;;;;;;;;;;;20.39;35.61;100970.05;105541;1301;67717;-89
2023/10/12 19:01:50;;;;;;;;;;;;;;;20.40;35.61;100971.95;105613;1297;67444;-89
2023/10/12 19:04:16;;;;;;;;;;;;;;;20.39;35.65;100969.81;105458;1293;67699;-89
2023/10/12 19:06:44;;;;;;;;;;;;;;;20.39;35.61;100966.52;105541;1299;66926;-89
2023/10/12 19:09:27;;;;;;;;;;;;;;;20.39;35.49;100961.21;105468;1300;66874;-89
2023/10/12 19:11:53;;;;;;;;;;;;;;;20.39;35.58;100960.44;105652;1297;67157;-89
2023/10/12 19:14:18;;;;;;;;;;;;;;;20.39;35.46;100963.81;105544;1298;67643;-90
2023/10/12 19:16:45;;;;;;;;;;;;;;;20.38;35.64;100966.98;105621;1297;67015;-89
2023/10/12 19:19:11;;;;;;;;;;;;;;;20.39;35.53;100968.88;105551;1300;66868;-89
2023/10/12 19:21:37;;;;;;;;;;;;;;;20.39;35.74;100965.91;105476;1299;67295;-90
2023/10/12 19:24:07;;;;;;;;;;;;;;;20.38;35.64;100964.48;105627;1297;67288;-89
2023/10/12 19:26:33;;;;;;;;;;;;;;;20.39;35.65;100962.69;105537;1296;66985;-90
2023/10/12 19:29:05;;;;;;;;;;;;;;;20.39;35.61;100963.81;105591;1299;67105;-90
2023/10/12 19:31:31;;;;;;;;;;;;;;;20.38;35.71;100966.67;105594;1300;71980;-90
2023/10/12 19:33:57;;;;;;;;;;;;;;;20.38;35.73;100968.10;105647;1299;67047;-88
2023/10/12 19:36:22;;;;;;;;;;;;;;;20.38;35.60;100969.02;105609;1298;67013;-89
2023/10/12 19:38:49;;;;;;;;;;;;;;;20.38;35.64;100966.92;105545;1296;67901;-89
2023/10/12 19:41:16;;;;;;;;;;;;;;;20.37;35.71;100964.20;105482;1303;66728;-90
2023/10/12 19:43:46;;;;;;;;;;;;;;;20.37;35.65;100968.30;105537;1299;67213;-89
2023/10/12 19:46:12;;;;;;;;;;;;;;;20.37;35.64;100964.61;105640;1296;66410;-89
2023/10/12 19:51:13;;;;;;;;;;;;;;;20.37;35.75;100960.78;105614;1297;73894;-89
2023/10/12 19:53:42;;;;;;;;;;;;;;;20.37;35.75;100962.00;105642;1296;81271;-89
2023/10/12 19:56:14;;;;;;;;;;;;;;;20.38;35.79;100965.48;105534;1296;73530;-89
2023/10/12 19:58:44;;;;;;;;;;;;;;;20.36;35.77;100961.69;105626;1300;66958;-89
2023/10/12 20:01:14;;;;;;;;;;;;;;;20.37;35.75;100960.06;105606;1295;67742;-89
2023/10/12 20:03:51;;;;;;;;;;;;;;;20.37;35.75;100958.13;105666;1299;75393;-90
2023/10/12 20:06:16;;;;;;;;;;;;;;;20.36;35.75;100958.92;105568;1299;82945;-89
2023/10/12 20:08:47;;;;;;;;;;;;;;;20.36;35.71;100962.92;105602;1296;66518;-89
2023/10/12 20:11:14;;;;;;;;;;;;;;;20.36;35.79;100960.83;105556;1299;66985;-89
2023/10/12 20:13:40;;;;;;;;;;;;;;;20.36;35.62;100958.92;105651;1296;66217;-89
2023/10/12 20:16:10;;;;;;;;;;;;;;;20.36;35.72;100959.75;105422;1299;67047;-89
2023/10/12 20:21:01;;;;;;;;;;;;;;;20.36;35.84;100958.46;105563;1299;66344;-90
2023/10/12 20:23:34;;;;;;;;;;;;;;;20.35;35.81;100956.15;105547;1298;68172;-89
2023/10/12 20:26:01;;;;;;;;;;;;;;;20.35;35.81;100961.06;105556;1300;66854;-89
2023/10/12 20:28:27;;;;;;;;;;;;;;;20.35;35.79;100960.65;105666;1295;67328;-89
2023/10/12 20:30:53;;;;;;;;;;;;;;;20.35;35.88;100960.80;105722;1294;66662;-89
2023/10/12 20:33:19;;;;;;;;;;;;;;;20.35;35.80;100962.45;105568;1299;66350;-89
2023/10/12 20:35:45;;;;;;;;;;;;;;;20.34;35.83;100968.17;105511;1300;66989;-89
2023/10/12 20:38:11;;;;;;;;;;;;;;;20.35;35.73;100964.95;105646;1297;67036;-89
2023/10/12 20:40:44;;;;;;;;;;;;;;;20.34;35.81;100965.20;105467;1299;67025;-89
2023/10/12 20:43:11;;;;;;;;;;;;;;;20.34;35.82;100963.52;105464;1296;82302;-89
2023/10/12 20:45:43;;;;;;;;;;;;;;;20.34;35.82;100960.96;105531;1293;72422;31
2023/10/12 20:48:08;;;;;;;;;;;;;;;20.34;35.85;100964.44;105593;1299;66939;-89
2023/10/12 20:50:35;;;;;;;;;;;;;;;20.34;35.78;100961.22;105611;1296;66313;-89
2023/10/12 20:53:01;;;;;;;;;;;;;;;20.34;35.83;100959.78;105575;1297;66397;-89
2023/10/12 20:55:28;;;;;;;;;;;;;;;20.34;35.85;100958.09;105603;1299;67209;-89
2023/10/12 20:57:57;;;;;;;;;;;;;;;20.33;35.81;100956.35;105665;1299;67025;-90
2023/10/12 21:00:24;;;;;;;;;;;;;;;20.33;35.89;100953.39;105613;1298;67703;-89
2023/10/12 21:02:50;;;;;;;;;;;;;;;20.33;36.01;100952.52;105605;1298;67470;-89
2023/10/12 21:05:26;;;;;;;;;;;;;;;20.33;35.85;100948.95;105569;1298;67227;-89
2023/10/12 21:07:56;;;;;;;;;;;;;;;20.33;35.87;100943.61;105502;1298;82628;-89
2023/10/12 21:10:23;;;;;;;;;;;;;;;20.33;35.89;100940.97;105664;1298;72398;-89
2023/10/12 21:12:49;;;;;;;;;;;;;;;20.33;35.92;100944.09;105576;1298;67081;-89
2023/10/12 21:15:20;;;;;;;;;;;;;;;20.33;35.94;100940.57;105581;1300;67005;-89
2023/10/12 21:17:58;;;;;;;;;;;;;;;20.32;35.81;100936.42;105672;1299;73422;-89
2023/10/12 21:20:37;;;;;;;;;;;;;;;20.32;35.80;100936.66;105680;1299;82444;-90
2023/10/12 21:23:04;;;;;;;;;;;;;;;20.32;35.99;100942.60;105657;1299;72676;-90
2023/10/12 21:25:33;;;;;;;;;;;;;;;20.33;35.79;100941.13;105635;1299;67136;-90
2023/10/12 21:28:02;;;;;;;;;;;;;;;20.32;36.00;100942.03;105639;1299;66655;-90
2023/10/12 21:30:36;;;;;;;;;;;;;;;20.32;36.00;100939.89;105646;1298;74418;-90
2023/10/12 21:33:10;;;;;;;;;;;;;;;20.32;35.88;100943.24;105617;1299;83110;-90
2023/10/12 21:35:41;;;;;;;;;;;;;;;20.31;35.99;100941.61;105617;1298;72536;-90
2023/10/12 21:38:08;;;;;;;;;;;;;;;20.31;35.79;100940.48;105568;1296;67566;-90
2023/10/12 21:40:39;;;;;;;;;;;;;;;20.31;35.92;100940.90;105636;1295;66288;-90